Time;durP1;ratioP1;P1;durP2;ratioP2;P2;SDS_P1;SDS_P2;PMS_P1;PMS_P2;Temp;Humidity;BMP_temperature;BMP_pressure;BME280_temperature;BME280_humidity;BME280_pressure;Samples;Min_cycle;Max_cycle;Signal;HPM_P1;HPM_P2
2022/12/30 00:00:57;;;;;;;5.87;2.93;;;;;;;6.34;100.00;100657.22;4961250;28;20227;-73
2022/12/30 00:03:22;;;;;;;12.30;3.67;;;;;;;6.41;100.00;100661.72;4965179;28;20197;-73
2022/12/30 00:05:48;;;;;;;8.10;3.13;;;;;;;6.45;100.00;100666.09;4966481;28;20189;-73
2022/12/30 00:10:57;;;;;;;9.37;3.50;;;;;;;6.55;100.00;100669.00;4963368;28;20268;-73
2022/12/30 00:33:08;;;;;;;13.87;4.33;;;;;;;6.76;100.00;100710.38;4962450;28;20236;-73
2022/12/30 00:35:39;;;;;;;15.23;4.40;;;;;;;6.80;100.00;100717.28;4969921;28;20204;-73
2022/12/30 00:38:05;;;;;;;11.23;3.83;;;;;;;6.84;100.00;100724.22;4963958;28;20767;-73
2022/12/30 00:40:31;;;;;;;18.03;4.20;;;;;;;6.81;100.00;100728.34;4963460;28;20307;-73
2022/12/30 00:43:08;;;;;;;10.27;4.10;;;;;;;6.78;100.00;100726.53;4959976;28;20193;-72
2022/12/30 00:45:42;;;;;;;15.10;3.83;;;;;;;6.74;100.00;100734.91;4950368;28;20198;-72
2022/12/30 00:56:21;;;;;;;10.67;3.53;;;;;;;6.82;100.00;100747.88;4962546;28;20200;-72
2022/12/30 00:58:47;;;;;;;7.73;3.33;;;;;;;6.82;100.00;100741.09;4962906;28;20737;-73
2022/12/30 01:01:13;;;;;;;16.47;4.00;;;;;;;6.81;100.00;100754.63;4965321;28;20195;-72
2022/12/30 01:03:38;;;;;;;12.30;3.37;;;;;;;6.82;100.00;100751.25;4960566;28;20691;-72
2022/12/30 01:06:08;;;;;;;9.27;3.50;;;;;;;6.78;100.00;100751.97;4944832;28;20674;-72
2022/12/30 01:08:34;;;;;;;15.90;3.80;;;;;;;6.80;100.00;100758.00;4958962;28;20192;-73
2022/12/30 01:11:05;;;;;;;16.97;4.37;;;;;;;6.75;100.00;100758.66;4966015;28;20236;-72
2022/12/30 01:13:31;;;;;;;11.53;3.97;;;;;;;6.79;100.00;100753.72;4966151;28;20254;-72
2022/12/30 01:15:56;;;;;;;10.00;3.00;;;;;;;6.81;99.76;100764.81;4942956;28;20204;-73
2022/12/30 01:18:23;;;;;;;18.07;4.13;;;;;;;6.80;100.00;100757.13;4952494;28;20248;-72
2022/12/30 01:20:48;;;;;;;10.20;3.67;;;;;;;6.81;100.00;100771.59;4959413;28;20220;-73
2022/12/30 01:23:14;;;;;;;14.73;3.67;;;;;;;6.75;100.00;100771.38;4961437;28;20208;-72
2022/12/30 01:25:40;;;;;;;13.03;3.60;;;;;;;6.73;100.00;100771.31;4963621;28;20567;-73
2022/12/30 01:28:05;;;;;;;13.43;3.60;;;;;;;6.73;99.65;100780.66;4965901;28;20239;-73
2022/12/30 01:30:31;;;;;;;17.13;4.40;;;;;;;6.72;99.85;100784.84;4944598;28;20217;-73
2022/12/30 01:32:56;;;;;;;15.50;4.30;;;;;;;6.74;99.88;100792.53;4959287;28;20220;-72
2022/12/30 01:35:22;;;;;;;13.07;3.57;;;;;;;6.78;100.00;100799.47;4963963;28;20240;-72
2022/12/30 01:37:47;;;;;;;13.20;3.43;;;;;;;6.84;99.76;100786.94;4964043;28;20349;-72
2022/12/30 01:40:12;;;;;;;13.97;3.43;;;;;;;6.83;100.00;100795.41;4963992;28;20216;-73
2022/12/30 01:42:40;;;;;;;13.30;3.83;;;;;;;6.83;99.05;100803.03;4961691;28;20224;-72
2022/12/30 01:45:26;;;;;;;10.03;3.20;;;;;;;6.81;99.58;100805.53;4965139;28;20207;-72
2022/12/30 01:47:52;;;;;;;15.07;4.03;;;;;;;6.87;98.97;100803.16;4963777;28;20424;-73
2022/12/30 01:50:35;;;;;;;17.53;3.90;;;;;;;6.84;99.05;100807.31;4960815;28;20897;-74
2022/12/30 01:53:10;;;;;;;13.43;3.47;;;;;;;6.77;99.88;100803.69;4942910;28;20203;-73
2022/12/30 01:56:01;;;;;;;17.27;4.20;;;;;;;6.76;99.77;100804.50;4967234;28;20209;-73
2022/12/30 01:58:49;;;;;;;15.80;3.70;;;;;;;6.80;99.40;100813.09;4967507;28;20736;-73
2022/12/30 02:01:14;;;;;;;13.00;3.40;;;;;;;6.77;98.92;100816.41;4952418;28;20216;-73
2022/12/30 02:03:44;;;;;;;15.77;4.10;;;;;;;6.80;98.78;100811.44;4966406;28;20204;-72
2022/12/30 02:06:14;;;;;;;16.60;4.20;;;;;;;6.78;99.18;100814.75;4960394;28;20307;-73
2022/12/30 02:08:39;;;;;;;13.17;3.90;;;;;;;6.81;99.14;100812.31;4963120;28;20202;-72
2022/12/30 02:11:05;;;;;;;16.83;4.60;;;;;;;6.80;99.30;100823.28;4954954;28;20192;-72
2022/12/30 02:13:31;;;;;;;15.03;4.53;;;;;;;6.78;99.14;100822.38;4964926;28;20211;-72
2022/12/30 02:16:15;;;;;;;19.17;4.37;;;;;;;6.73;100.00;100822.19;4962229;28;20197;-71
2022/12/30 02:19:14;;;;;;;15.47;4.03;;;;;;;6.77;100.00;100816.41;4959188;28;20231;-72
2022/12/30 02:21:46;;;;;;;15.03;4.23;;;;;;;6.71;99.97;100826.38;4962974;28;20736;-72
2022/12/30 02:24:17;;;;;;;22.33;4.50;;;;;;;6.66;99.96;100827.03;4963973;28;20231;-71
2022/12/30 02:27:04;;;;;;;12.43;3.83;;;;;;;6.65;99.66;100835.47;4960580;28;20201;-72
2022/12/30 02:29:50;;;;;;;23.07;5.33;;;;;;;6.61;100.00;100829.44;4958305;28;20220;-72
2022/12/30 02:32:18;;;;;;;14.27;4.10;;;;;;;6.60;100.00;100824.28;4964542;28;20204;-72
2022/12/30 02:34:59;;;;;;;18.93;4.30;;;;;;;6.61;100.00;100831.97;4958920;28;20227;-72
2022/12/30 02:37:35;;;;;;;17.53;4.60;;;;;;;6.57;100.00;100824.16;4945341;28;20215;-72
2022/12/30 02:40:19;;;;;;;17.20;4.27;;;;;;;6.56;100.00;100833.50;4961071;28;20692;-72
2022/12/30 02:45:47;;;;;;;22.63;4.27;;;;;;;6.51;100.00;100836.69;4961749;28;20199;-73
2022/12/30 02:48:34;;;;;;;15.13;4.50;;;;;;;6.53;100.00;100833.38;4959247;28;20325;-72
2022/12/30 02:53:45;;;;;;;16.60;4.23;;;;;;;6.57;99.79;100849.59;4961219;28;20197;-73
2022/12/30 02:56:11;;;;;;;14.67;4.97;;;;;;;6.55;99.78;100849.56;4968629;28;20655;-72
2022/12/30 02:58:46;;;;;;;11.47;3.93;;;;;;;6.56;100.00;100838.59;4964611;28;20374;-72
2022/12/30 03:04:37;;;;;;;17.03;4.97;;;;;;;6.58;100.00;100851.34;4964743;28;20704;-72
2022/12/30 03:07:27;;;;;;;18.37;4.53;;;;;;;6.61;99.99;100859.06;4950016;28;20634;-72
2022/12/30 03:12:58;;;;;;;16.47;4.57;;;;;;;6.70;99.75;100844.13;4959331;28;20205;-72
2022/12/30 03:15:31;;;;;;;20.67;4.50;;;;;;;6.64;100.00;100852.41;4961357;28;20204;-72
2022/12/30 03:17:57;;;;;;;19.73;4.67;;;;;;;6.73;100.00;100856.97;4960348;28;20221;-72
2022/12/30 03:20:24;;;;;;;16.87;4.87;;;;;;;6.70;99.37;100859.41;4960665;28;20710;-73
2022/12/30 03:28:26;;;;;;;14.97;4.33;;;;;;;6.81;98.96;100866.59;4964129;28;20196;-72
2022/12/30 03:30:59;;;;;;;18.57;4.50;;;;;;;6.82;98.78;100872.56;4964638;28;20216;-72
2022/12/30 03:33:27;;;;;;;18.20;5.00;;;;;;;6.88;99.14;100875.31;4963082;28;20251;-72
2022/12/30 03:35:59;;;;;;;11.63;4.27;;;;;;;6.89;98.86;100872.81;4963808;28;20619;-72
2022/12/30 03:38:29;;;;;;;19.97;4.93;;;;;;;6.87;98.66;100882.06;4962536;28;20216;-72
2022/12/30 03:40:58;;;;;;;10.37;4.00;;;;;;;6.90;98.16;100886.38;4957819;28;20298;-72
2022/12/30 03:43:26;;;;;;;14.80;4.30;;;;;;;6.92;98.01;100890.75;4968077;28;20296;-72
2022/12/30 03:45:52;;;;;;;13.60;3.73;;;;;;;6.95;98.05;100895.94;4965135;28;20196;-71
2022/12/30 03:48:17;;;;;;;14.17;4.27;;;;;;;7.01;98.05;100895.28;4964243;28;20247;-72
2022/12/30 03:50:44;;;;;;;15.50;4.73;;;;;;;7.05;97.54;100897.97;4966287;28;20216;-72
2022/12/30 03:53:10;;;;;;;14.90;4.07;;;;;;;7.07;97.34;100900.56;4951214;28;20238;-72
2022/12/30 03:55:35;;;;;;;17.67;4.57;;;;;;;7.03;97.57;100906.38;4969540;28;20943;-73
2022/12/30 03:58:00;;;;;;;14.03;4.53;;;;;;;7.05;97.75;100907.31;4964820;28;20682;-73
2022/12/30 04:00:26;;;;;;;19.13;4.40;;;;;;;7.08;97.22;100923.53;4967919;28;20226;-73
2022/12/30 04:02:51;;;;;;;20.10;5.07;;;;;;;7.07;97.77;100918.38;4964700;28;20709;-72
2022/12/30 04:05:17;;;;;;;15.70;4.63;;;;;;;7.06;97.40;100925.19;4968525;28;20615;-72
2022/12/30 04:07:42;;;;;;;17.50;4.47;;;;;;;7.09;97.62;100922.72;4963259;28;20205;-73
2022/12/30 04:10:08;;;;;;;16.23;4.60;;;;;;;7.11;97.11;100928.75;4963208;28;20224;-72
2022/12/30 04:12:34;;;;;;;16.23;3.97;;;;;;;7.09;96.80;100927.81;4966165;28;20203;-73
2022/12/30 04:14:59;;;;;;;16.47;4.20;;;;;;;7.09;96.89;100932.06;4963346;28;20670;-73
2022/12/30 04:17:24;;;;;;;14.60;4.37;;;;;;;7.06;96.89;100940.44;4963195;28;20211;-73
2022/12/30 04:19:50;;;;;;;19.07;4.53;;;;;;;7.05;97.11;100930.22;4962635;28;20584;-72
2022/12/30 04:22:15;;;;;;;12.27;4.17;;;;;;;7.02;96.28;100930.97;4964631;28;20259;-73
2022/12/30 04:24:41;;;;;;;13.87;4.30;;;;;;;7.03;96.53;100937.78;4961507;28;20196;-72
2022/12/30 04:27:06;;;;;;;13.73;4.27;;;;;;;7.00;96.89;100945.31;4961537;28;20748;-72
2022/12/30 04:29:32;;;;;;;16.10;4.50;;;;;;;7.04;97.33;100944.59;4964208;28;20756;-72
2022/12/30 04:31:57;;;;;;;15.20;3.97;;;;;;;7.03;96.75;100953.06;4966531;28;20215;-72
2022/12/30 04:34:22;;;;;;;12.73;3.67;;;;;;;7.04;96.39;100952.25;4970651;28;20215;-72
2022/12/30 04:36:48;;;;;;;21.30;4.43;;;;;;;7.03;96.03;100955.59;4965009;28;20334;-72
2022/12/30 04:39:14;;;;;;;15.77;4.30;;;;;;;7.02;96.82;100960.63;4966988;28;20224;-72
2022/12/30 04:41:39;;;;;;;20.93;5.07;;;;;;;6.98;96.71;100959.69;4967574;28;20205;-72
2022/12/30 04:44:06;;;;;;;14.87;4.23;;;;;;;6.94;97.48;100962.91;4966535;28;20192;-71
2022/12/30 04:46:32;;;;;;;15.63;3.90;;;;;;;6.95;96.89;100972.28;4964054;28;20203;-71
2022/12/30 04:48:57;;;;;;;17.93;4.20;;;;;;;6.97;96.88;100972.34;4951249;28;20308;-74
2022/12/30 04:51:23;;;;;;;16.13;4.40;;;;;;;6.98;96.96;100976.59;4965318;28;20283;-73
2022/12/30 04:53:49;;;;;;;13.90;3.90;;;;;;;6.97;96.94;100975.75;4963897;28;20192;-73
2022/12/30 04:56:14;;;;;;;13.00;3.97;;;;;;;6.94;97.21;100985.81;4963626;28;20207;-72
2022/12/30 04:58:40;;;;;;;15.30;4.37;;;;;;;6.96;96.60;100986.72;4962849;28;20749;-73
2022/12/30 05:01:05;;;;;;;14.57;4.27;;;;;;;6.89;97.20;100986.47;4961532;28;20204;-73
2022/12/30 05:03:31;;;;;;;15.97;4.77;;;;;;;6.84;96.89;100999.03;4960965;28;20275;-73
2022/12/30 05:05:57;;;;;;;11.93;4.10;;;;;;;6.84;96.93;100993.94;4963794;28;20197;-72
2022/12/30 05:08:22;;;;;;;16.67;4.83;;;;;;;6.88;96.86;100994.91;4964076;28;20239;-72
2022/12/30 05:10:48;;;;;;;17.93;4.10;;;;;;;6.86;97.15;100992.31;4960672;28;20247;-73
2022/12/30 05:13:13;;;;;;;15.73;5.03;;;;;;;6.86;97.46;101002.50;4963926;28;20232;-72
2022/12/30 05:15:39;;;;;;;19.13;4.67;;;;;;;6.84;97.38;101004.13;4959826;28;20200;-72
2022/12/30 05:18:04;;;;;;;15.80;4.50;;;;;;;6.81;96.78;100996.38;4962861;28;20228;-72
2022/12/30 05:20:30;;;;;;;14.33;3.97;;;;;;;6.79;97.18;100997.13;4963808;28;20311;-72
2022/12/30 05:22:55;;;;;;;9.40;4.10;;;;;;;6.78;96.62;100992.84;4960713;28;20196;-72
2022/12/30 05:28:05;;;;;;;18.53;4.30;;;;;;;6.74;96.87;101001.19;4965002;28;20251;-72
2022/12/30 05:30:30;;;;;;;16.37;4.50;;;;;;;6.73;97.67;101002.84;4959559;28;20224;-72
2022/12/30 05:32:56;;;;;;;20.17;4.87;;;;;;;6.71;97.18;101014.66;4965609;28;20209;-72
2022/12/30 05:35:21;;;;;;;10.83;4.13;;;;;;;6.74;97.64;101011.34;4968962;28;20228;-72
2022/12/30 05:37:47;;;;;;;14.67;4.17;;;;;;;6.73;97.86;101012.16;4964191;28;20243;-72
2022/12/30 05:40:13;;;;;;;18.50;4.13;;;;;;;6.70;97.13;101015.47;4959346;28;20305;-72
2022/12/30 05:42:39;;;;;;;19.10;4.30;;;;;;;6.68;97.91;101022.16;4963393;28;20196;-72
2022/12/30 05:45:05;;;;;;;16.80;4.80;;;;;;;6.67;98.13;101030.63;4964765;28;20852;-73
2022/12/30 05:47:31;;;;;;;14.23;4.57;;;;;;;6.67;97.22;101029.72;4961995;28;20220;-72
2022/12/30 05:49:56;;;;;;;13.00;4.30;;;;;;;6.68;97.79;101032.34;4960999;28;20224;-72
2022/12/30 05:52:22;;;;;;;15.43;4.27;;;;;;;6.67;97.49;101040.78;4964290;28;20215;-73
2022/12/30 05:54:47;;;;;;;16.03;4.30;;;;;;;6.65;97.62;101034.78;4960704;28;20288;-73
2022/12/30 05:57:13;;;;;;;13.50;5.30;;;;;;;6.62;97.63;101037.19;4965106;28;20197;-73
2022/12/30 05:59:38;;;;;;;16.73;4.47;;;;;;;6.59;98.03;101034.53;4959896;28;20252;-72
2022/12/30 06:02:03;;;;;;;15.53;4.60;;;;;;;6.65;96.89;101044.97;4964708;28;20463;-73
2022/12/30 06:04:29;;;;;;;14.43;4.43;;;;;;;6.64;97.48;101052.53;4965272;28;20674;-72
2022/12/30 06:06:54;;;;;;;16.17;5.00;;;;;;;6.64;97.87;101045.75;4966669;28;20204;-72
2022/12/30 06:09:20;;;;;;;19.47;4.80;;;;;;;6.62;97.79;101047.38;4966749;28;20221;-72
2022/12/30 06:11:46;;;;;;;14.30;4.50;;;;;;;6.62;97.78;101049.94;4966332;28;20242;-72
2022/12/30 06:14:14;;;;;;;14.20;4.30;;;;;;;6.66;97.28;101053.44;4968006;28;20282;-73
2022/12/30 06:16:40;;;;;;;12.10;3.87;;;;;;;6.64;97.73;101045.75;4962955;28;20661;-74
2022/12/30 06:19:06;;;;;;;10.67;4.60;;;;;;;6.66;97.08;101048.34;4965996;28;20270;-73
2022/12/30 06:21:31;;;;;;;16.20;4.20;;;;;;;6.60;97.58;101051.56;4965160;28;20209;-75
2022/12/30 06:23:57;;;;;;;13.27;4.63;;;;;;;6.54;97.60;101051.31;4962439;28;20204;-74
2022/12/30 06:26:22;;;;;;;18.83;5.13;;;;;;;6.49;98.06;101054.50;4966161;28;20591;-74
2022/12/30 06:28:48;;;;;;;15.57;4.70;;;;;;;6.43;98.00;101055.13;4961352;28;20193;-74
2022/12/30 06:31:13;;;;;;;19.17;5.00;;;;;;;6.38;97.84;101064.25;4966886;28;20212;-74
2022/12/30 06:33:38;;;;;;;17.90;4.70;;;;;;;6.36;97.81;101070.06;4962834;28;20204;-74
2022/12/30 06:36:04;;;;;;;12.80;4.57;;;;;;;6.35;98.24;101066.66;4965050;28;20236;-74
2022/12/30 06:38:30;;;;;;;16.33;4.90;;;;;;;6.30;98.74;101057.09;4963072;28;20708;-74
2022/12/30 06:40:55;;;;;;;18.80;4.60;;;;;;;6.25;98.27;101056.06;4959749;28;20247;-74
2022/12/30 06:43:21;;;;;;;22.00;4.83;;;;;;;6.20;98.46;101060.09;4962537;28;20200;-74
2022/12/30 06:45:46;;;;;;;23.93;4.73;;;;;;;6.12;98.27;101059.78;4958497;28;20209;-74
2022/12/30 06:48:12;;;;;;;17.23;4.53;;;;;;;6.08;98.90;101067.25;4961665;28;20200;-73
2022/12/30 06:50:37;;;;;;;13.70;4.90;;;;;;;6.03;98.98;101079.75;4956848;28;20216;-72
2022/12/30 06:53:04;;;;;;;13.67;4.90;;;;;;;5.97;99.02;101079.50;4952147;28;20188;-73
2022/12/30 06:55:29;;;;;;;14.00;4.67;;;;;;;5.90;98.64;101076.66;4966198;28;20303;-73
2022/12/30 06:57:55;;;;;;;12.37;4.10;;;;;;;5.85;99.01;101073.06;4965362;28;20304;-73
2022/12/30 07:00:20;;;;;;;14.73;5.57;;;;;;;5.82;99.53;101081.41;4970282;28;20689;-73
2022/12/30 07:02:46;;;;;;;13.13;4.60;;;;;;;5.78;99.24;101073.56;4967559;28;20560;-73
2022/12/30 07:05:11;;;;;;;12.10;4.13;;;;;;;5.74;99.25;101072.56;4967555;28;20685;-73
2022/12/30 07:07:37;;;;;;;13.83;4.77;;;;;;;5.73;99.43;101082.66;4971423;28;20200;-73
2022/12/30 07:10:03;;;;;;;19.67;4.80;;;;;;;5.66;99.59;101081.53;4967787;28;20210;-74
2022/12/30 07:12:28;;;;;;;19.30;4.23;;;;;;;5.65;99.78;101081.47;4968583;28;20196;-73
2022/12/30 07:14:53;;;;;;;15.37;4.30;;;;;;;5.60;100.00;101076.19;4961942;28;20275;-74
2022/12/30 07:17:19;;;;;;;12.50;3.73;;;;;;;5.56;100.00;101079.41;4967686;28;20192;-74
2022/12/30 07:19:46;;;;;;;21.50;4.67;;;;;;;5.55;100.00;101089.50;4968190;28;20242;-74
2022/12/30 07:22:12;;;;;;;18.40;4.20;;;;;;;5.50;100.00;101090.97;4966671;28;20203;-73
2022/12/30 07:24:37;;;;;;;20.20;4.83;;;;;;;5.47;100.00;101094.25;4967463;28;20208;-73
2022/12/30 07:27:03;;;;;;;12.33;4.17;;;;;;;5.47;100.00;101091.72;4969329;28;20288;-74
2022/12/30 07:29:28;;;;;;;16.57;4.00;;;;;;;5.44;100.00;101104.25;4966421;28;20224;-73
2022/12/30 07:31:54;;;;;;;17.63;4.73;;;;;;;5.44;100.00;101111.03;4965752;28;20204;-73
2022/12/30 07:34:19;;;;;;;17.00;4.57;;;;;;;5.40;100.00;101109.16;4953850;28;20573;-73
2022/12/30 07:36:44;;;;;;;14.63;4.40;;;;;;;5.35;100.00;101111.47;4950981;28;20632;-73
2022/12/30 07:39:10;;;;;;;17.30;4.23;;;;;;;5.34;100.00;101111.44;4965791;28;20256;-72
2022/12/30 07:41:36;;;;;;;16.77;4.10;;;;;;;5.35;100.00;101119.09;4967893;28;20204;-73
2022/12/30 07:44:08;;;;;;;16.10;4.13;;;;;;;5.32;100.00;101120.63;4969043;28;20676;-73
2022/12/30 07:46:34;;;;;;;16.13;4.13;;;;;;;5.29;100.00;101123.06;4953060;28;20192;-73
2022/12/30 07:48:59;;;;;;;17.67;4.67;;;;;;;5.27;100.00;101122.97;4967468;28;20829;-73
2022/12/30 07:51:25;;;;;;;17.57;4.43;;;;;;;5.22;100.00;101123.56;4963346;28;20196;-73
2022/12/30 07:53:50;;;;;;;12.20;4.37;;;;;;;5.22;100.00;101121.91;4969383;28;20195;-73
2022/12/30 07:56:16;;;;;;;21.57;5.20;;;;;;;5.21;100.00;101121.84;4968460;28;20654;-73
2022/12/30 07:58:41;;;;;;;15.07;4.33;;;;;;;5.19;100.00;101119.22;4965854;28;20693;-73
2022/12/30 08:01:12;;;;;;;14.40;3.60;;;;;;;5.21;100.00;101121.84;4960883;28;20200;-73
2022/12/30 08:03:38;;;;;;;17.57;3.80;;;;;;;5.20;100.00;101120.94;4968687;28;20197;-73
2022/12/30 08:06:07;;;;;;;25.83;5.33;;;;;;;5.19;100.00;101128.50;4968219;28;20205;-72
2022/12/30 08:08:33;;;;;;;17.90;4.20;;;;;;;5.22;100.00;101133.72;4965775;28;20199;-73
2022/12/30 08:10:59;;;;;;;17.83;4.53;;;;;;;5.21;100.00;101135.38;4967009;28;20208;-73
2022/12/30 08:13:25;;;;;;;12.77;4.07;;;;;;;5.20;100.00;101135.31;4964946;28;20246;-73
2022/12/30 08:15:50;;;;;;;13.87;3.90;;;;;;;5.19;100.00;101136.97;4967284;28;20197;-73
2022/12/30 08:18:16;;;;;;;12.07;4.50;;;;;;;5.21;100.00;101131.97;4964819;28;20204;-73
2022/12/30 08:20:42;;;;;;;19.57;4.53;;;;;;;5.25;100.00;101128.78;4967548;28;20246;-73
2022/12/30 08:23:07;;;;;;;15.70;4.50;;;;;;;5.26;100.00;101122.91;4964650;28;20627;-73
2022/12/30 08:25:34;;;;;;;15.73;4.10;;;;;;;5.22;100.00;101126.97;4970145;28;20207;-73
2022/12/30 08:27:59;;;;;;;17.53;4.73;;;;;;;5.28;100.00;101127.25;4962918;28;20275;-73
2022/12/30 08:30:25;;;;;;;16.27;4.67;;;;;;;5.28;100.00;101118.75;4966535;28;20216;-73
2022/12/30 08:32:51;;;;;;;15.80;3.90;;;;;;;5.33;100.00;101133.41;4949999;28;20226;-73
2022/12/30 08:35:16;;;;;;;19.23;4.20;;;;;;;5.35;100.00;101126.69;4963943;28;20634;-73
2022/12/30 08:37:42;;;;;;;19.70;4.73;;;;;;;5.39;100.00;101133.66;4969383;28;20232;-72
2022/12/30 08:40:09;;;;;;;15.93;4.07;;;;;;;5.40;100.00;101129.47;4969275;28;20220;-71
2022/12/30 08:42:35;;;;;;;18.20;4.93;;;;;;;5.46;100.00;101138.22;4968049;28;20725;-73
2022/12/30 08:45:01;;;;;;;16.63;5.27;;;;;;;5.51;100.00;101130.78;4964852;28;20228;-73
2022/12/30 08:47:26;;;;;;;15.57;4.30;;;;;;;5.53;100.00;101134.28;4966592;28;20947;-72
2022/12/30 08:49:52;;;;;;;17.53;4.67;;;;;;;5.57;100.00;101134.47;4965889;28;20299;-73
2022/12/30 08:52:17;;;;;;;17.63;4.67;;;;;;;5.61;100.00;101133.81;4962336;28;20580;-73
2022/12/30 08:54:43;;;;;;;20.23;5.37;;;;;;;5.71;100.00;101130.00;4962325;28;20209;-73
2022/12/30 08:57:09;;;;;;;18.07;5.30;;;;;;;5.72;100.00;101125.00;4968118;28;20212;-73
2022/12/30 08:59:34;;;;;;;13.97;4.50;;;;;;;5.76;100.00;101125.97;4964312;28;20630;-73
2022/12/30 09:02:00;;;;;;;15.87;4.13;;;;;;;5.79;100.00;101119.34;4963180;28;20260;-72
2022/12/30 09:04:25;;;;;;;18.30;4.53;;;;;;;5.84;99.88;101124.69;4966576;28;20272;-73
2022/12/30 09:06:51;;;;;;;16.33;4.67;;;;;;;5.93;100.00;101128.47;4966522;28;20276;-72
2022/12/30 09:09:16;;;;;;;12.67;4.20;;;;;;;5.99;99.54;101132.94;4967855;28;20212;-73
2022/12/30 09:11:43;;;;;;;19.17;4.40;;;;;;;6.07;99.05;101129.91;4967684;28;20282;-73
2022/12/30 09:14:11;;;;;;;21.73;5.40;;;;;;;6.17;99.22;101129.47;4963698;28;20208;-72
2022/12/30 09:16:37;;;;;;;14.03;4.30;;;;;;;6.23;98.42;101134.84;4964557;28;20311;-72
2022/12/30 09:19:02;;;;;;;16.40;3.90;;;;;;;6.28;98.61;101135.88;4966298;28;20215;-73
2022/12/30 09:21:28;;;;;;;11.30;3.60;;;;;;;6.36;98.51;101134.50;4966839;28;20200;-73
2022/12/30 09:23:54;;;;;;;14.03;3.50;;;;;;;6.47;97.41;101140.91;4964405;28;20749;-72
2022/12/30 09:26:23;;;;;;;18.30;4.73;;;;;;;6.50;97.36;101122.34;4966933;28;20189;-72
2022/12/30 09:28:49;;;;;;;17.70;3.60;;;;;;;6.56;97.00;101131.09;4966472;28;20663;-73
2022/12/30 09:31:15;;;;;;;17.33;4.50;;;;;;;6.69;96.22;101142.63;4965412;28;20223;-73
2022/12/30 09:33:41;;;;;;;18.47;4.80;;;;;;;6.70;96.28;101139.25;4963335;28;20653;-73
2022/12/30 09:36:07;;;;;;;16.30;4.03;;;;;;;6.77;95.82;101134.47;4964624;28;20781;-72
2022/12/30 09:38:32;;;;;;;13.17;3.50;;;;;;;6.83;95.53;101134.72;4966163;28;20219;-72
2022/12/30 09:41:09;;;;;;;14.57;3.50;;;;;;;6.87;95.08;101130.63;4948909;28;20275;-72
2022/12/30 09:44:11;;;;;;;11.70;3.63;;;;;;;6.99;94.01;101124.31;4962046;28;20220;-72
2022/12/30 09:46:47;;;;;;;10.07;3.83;;;;;;;7.16;93.80;101110.53;4961280;28;20860;-72
2022/12/30 09:49:15;;;;;;;10.20;3.10;;;;;;;7.27;93.33;101121.13;4965286;28;20243;-73
2022/12/30 09:51:46;;;;;;;12.97;3.93;;;;;;;7.37;92.34;101118.94;4965728;28;20228;-73
2022/12/30 09:54:39;;;;;;;14.13;3.37;;;;;;;7.55;91.69;101117.06;4964629;28;20207;-74
2022/12/30 09:59:57;;;;;;;13.60;3.20;;;;;;;7.63;91.43;101102.03;4960296;28;20295;-74
2022/12/30 10:02:30;;;;;;;8.33;2.70;;;;;;;7.90;90.32;101100.44;4959323;28;20599;-73
2022/12/30 10:04:58;;;;;;;15.77;3.60;;;;;;;8.02;89.92;101101.72;4968724;28;20219;-73
2022/12/30 10:07:32;;;;;;;11.03;2.93;;;;;;;7.98;89.48;101086.28;4967218;28;20223;-72
2022/12/30 10:10:24;;;;;;;8.63;2.93;;;;;;;8.16;89.49;101089.44;4966610;28;20246;-73
2022/12/30 10:13:03;;;;;;;11.63;2.93;;;;;;;8.25;88.02;101082.97;4964344;28;20572;-73
2022/12/30 10:15:29;;;;;;;11.13;2.70;;;;;;;8.21;88.41;101080.28;4960691;28;20264;-73
2022/12/30 10:18:14;;;;;;;14.80;3.47;;;;;;;8.25;88.12;101075.31;4968345;28;20773;-73
2022/12/30 10:20:42;;;;;;;10.07;3.60;;;;;;;8.35;88.29;101068.84;4965850;28;20586;-74
2022/12/30 10:23:33;;;;;;;10.20;2.80;;;;;;;8.33;86.72;101056.03;4963905;28;20207;-72
2022/12/30 10:26:13;;;;;;;9.70;2.93;;;;;;;8.71;86.21;101052.13;4966246;28;20287;-73
2022/12/30 10:28:45;;;;;;;13.43;2.73;;;;;;;8.69;85.78;101052.06;4966913;28;20204;-74
2022/12/30 10:31:20;;;;;;;10.57;2.50;;;;;;;9.10;84.86;101033.69;4963396;28;20696;-74
2022/12/30 10:33:49;;;;;;;11.70;2.90;;;;;;;9.24;83.38;101034.06;4963043;28;20283;-75
2022/12/30 10:36:20;;;;;;;9.10;2.70;;;;;;;10.80;79.39;101002.16;4950228;28;20197;-74
2022/12/30 10:38:46;;;;;;;12.90;3.23;;;;;;;11.34;72.89;101019.47;4964956;28;20252;-75
2022/12/30 10:41:14;;;;;;;11.10;2.43;;;;;;;10.73;74.55;101023.34;4967962;28;20676;-76
2022/12/30 10:43:52;;;;;;;12.47;2.60;;;;;;;9.86;78.60;101022.09;4964858;28;20248;-74
2022/12/30 10:46:37;;;;;;;14.10;2.63;;;;;;;9.51;80.87;101022.91;4965377;28;20200;-73
2022/12/30 10:49:08;;;;;;;12.73;3.13;;;;;;;9.52;80.96;101019.53;4959050;28;20287;-72
2022/12/30 10:51:34;;;;;;;9.80;2.40;;;;;;;9.48;80.94;101006.63;4961009;28;20216;-73
2022/12/30 10:54:00;;;;;;;12.20;2.40;;;;;;;9.32;81.96;101007.94;4966481;28;20205;-74
2022/12/30 10:56:28;;;;;;;14.17;3.13;;;;;;;9.55;80.33;101009.41;4971373;28;20207;-74
2022/12/30 10:58:58;;;;;;;9.50;2.37;;;;;;;9.48;80.41;100999.81;4961440;28;20681;-73
2022/12/30 11:01:36;;;;;;;12.10;2.37;;;;;;;9.84;79.88;100994.75;4965214;28;20200;-74
2022/12/30 11:04:02;;;;;;;8.33;2.10;;;;;;;9.92;80.13;100990.72;4963286;28;20201;-74
2022/12/30 11:06:30;;;;;;;8.83;2.30;;;;;;;9.96;78.44;100990.81;4962957;28;20287;-74
2022/12/30 11:09:22;;;;;;;9.13;2.63;;;;;;;10.19;77.69;100969.22;4965462;28;20195;-74
2022/12/30 11:14:42;;;;;;;7.73;2.33;;;;;;;10.78;75.06;100952.59;4969387;28;20251;-74
2022/12/30 11:17:16;;;;;;;8.60;2.77;;;;;;;10.14;76.04;100957.16;4969384;28;20278;-74
2022/12/30 11:19:50;;;;;;;9.67;2.17;;;;;;;9.68;76.91;100960.28;4966546;28;20326;-73
2022/12/30 11:22:16;;;;;;;7.40;2.17;;;;;;;9.39;77.63;100950.16;4957284;28;20564;-74
2022/12/30 11:25:03;;;;;;;7.37;2.00;;;;;;;9.43;77.81;100950.28;4970592;28;20200;-74
2022/12/30 11:27:50;;;;;;;9.13;2.27;;;;;;;9.25;77.84;100954.03;4966039;28;20206;-74
2022/12/30 11:30:39;;;;;;;5.67;2.10;;;;;;;9.50;78.74;100938.53;4966411;28;20220;-72
2022/12/30 11:33:17;;;;;;;11.37;2.13;;;;;;;9.34;78.24;100944.06;4968940;28;20225;-74
2022/12/30 11:35:46;;;;;;;7.70;2.40;;;;;;;9.55;78.85;100948.06;4961930;28;20208;-73
2022/12/30 11:38:30;;;;;;;9.30;2.33;;;;;;;9.49;77.88;100937.66;4952311;28;20694;-72
2022/12/30 11:40:57;;;;;;;11.13;2.20;;;;;;;9.61;77.27;100937.09;4968814;28;20311;-71
2022/12/30 11:43:23;;;;;;;8.00;2.00;;;;;;;9.38;77.62;100928.88;4963798;28;20562;-72
2022/12/30 11:46:02;;;;;;;7.00;2.17;;;;;;;9.43;77.94;100908.50;4965968;28;20650;-71
2022/12/30 11:48:30;;;;;;;9.27;2.00;;;;;;;9.16;78.42;100918.91;4968537;28;20193;-71
2022/12/30 11:50:58;;;;;;;9.17;2.03;;;;;;;9.24;78.16;100911.44;4964560;28;20227;-71
2022/12/30 11:53:28;;;;;;;8.07;1.90;;;;;;;9.33;78.55;100906.56;4969293;28;20193;-71
2022/12/30 11:55:55;;;;;;;5.53;2.07;;;;;;;9.39;78.35;100884.59;4966303;28;20204;-71
2022/12/30 11:58:21;;;;;;;7.83;1.63;;;;;;;9.33;78.18;100875.91;4969093;28;20208;-71
2022/12/30 12:00:56;;;;;;;8.83;2.23;;;;;;;9.00;78.00;100878.50;4968859;28;20314;-71
2022/12/30 12:03:23;;;;;;;9.93;2.30;;;;;;;8.99;79.25;100876.72;4959780;28;20701;-70
2022/12/30 12:06:03;;;;;;;12.80;2.30;;;;;;;8.87;80.14;100873.00;4964616;28;20196;-70
2022/12/30 12:08:41;;;;;;;11.33;2.13;;;;;;;8.69;79.68;100865.72;4956053;28;20192;-70
2022/12/30 12:11:17;;;;;;;7.20;1.70;;;;;;;8.71;80.77;100870.88;4952545;28;20241;-72
2022/12/30 12:14:04;;;;;;;6.47;1.73;;;;;;;8.73;81.45;100848.78;4961558;28;20206;-72
2022/12/30 12:16:41;;;;;;;9.43;1.87;;;;;;;8.81;79.91;100849.88;4969822;28;20834;-72
2022/12/30 12:19:36;;;;;;;8.77;2.10;;;;;;;8.68;80.58;100842.72;4966560;28;20231;-72
2022/12/30 12:22:08;;;;;;;5.43;1.63;;;;;;;8.80;80.74;100838.78;4956718;28;20212;-71
2022/12/30 12:24:39;;;;;;;12.10;2.50;;;;;;;9.02;80.48;100820.63;4961116;28;20188;-71
2022/12/30 12:27:16;;;;;;;7.70;1.70;;;;;;;8.90;79.99;100822.88;4963553;28;20235;-71
2022/12/30 12:29:42;;;;;;;10.97;1.93;;;;;;;9.12;79.53;100811.53;4962827;28;20216;-72